sensor_id;sensor_type;location;lat;lon;timestamp;temperature;humidity
16846;DHT22;8539;53.188;8.696;2023-02-01T00:00:53;5.10;99.90
16846;DHT22;8539;53.188;8.696;2023-02-01T00:03:20;5.10;99.90
16846;DHT22;8539;53.188;8.696;2023-02-01T00:05:55;5.20;99.90
16846;DHT22;8539;53.188;8.696;2023-02-01T00:08:22;5.20;99.90
16846;DHT22;8539;53.188;8.696;2023-02-01T00:10:56;5.10;99.90
16846;DHT22;8539;53.188;8.696;2023-02-01T00:13:23;5.10;99.90
16846;DHT22;8539;53.188;8.696;2023-02-01T00:15:48;5.10;99.90
16846;DHT22;8539;53.188;8.696;2023-02-01T00:18:14;5.20;99.90
16846;DHT22;8539;53.188;8.696;2023-02-01T00:20:45;5.10;99.90
16846;DHT22;8539;53.188;8.696;2023-02-01T00:23:12;5.20;99.90
16846;DHT22;8539;53.188;8.696;2023-02-01T00:25:38;5.20;99.90
16846;DHT22;8539;53.188;8.696;2023-02-01T00:28:05;5.20;99.90
16846;DHT22;8539;53.188;8.696;2023-02-01T00:30:32;5.30;99.90
16846;DHT22;8539;53.188;8.696;2023-02-01T00:32:58;5.20;99.90
16846;DHT22;8539;53.188;8.696;2023-02-01T00:35:24;5.30;99.90
16846;DHT22;8539;53.188;8.696;2023-02-01T00:37:50;5.30;99.90
16846;DHT22;8539;53.188;8.696;2023-02-01T00:40:16;5.40;99.90
16846;DHT22;8539;53.188;8.696;2023-02-01T00:42:42;5.30;99.90
16846;DHT22;8539;53.188;8.696;2023-02-01T00:45:08;5.30;99.90
16846;DHT22;8539;53.188;8.696;2023-02-01T00:47:35;5.30;99.90
16846;DHT22;8539;53.188;8.696;2023-02-01T00:50:01;5.30;99.90
16846;DHT22;8539;53.188;8.696;2023-02-01T00:52:27;5.40;99.90
16846;DHT22;8539;53.188;8.696;2023-02-01T00:54:53;5.40;99.90
16846;DHT22;8539;53.188;8.696;2023-02-01T00:57:19;5.40;99.90
16846;DHT22;8539;53.188;8.696;2023-02-01T00:59:45;5.40;99.90
16846;DHT22;8539;53.188;8.696;2023-02-01T01:02:11;5.40;99.90
16846;DHT22;8539;53.188;8.696;2023-02-01T01:04:40;5.50;99.90
16846;DHT22;8539;53.188;8.696;2023-02-01T01:07:06;5.40;99.90
16846;DHT22;8539;53.188;8.696;2023-02-01T01:09:37;5.50;99.90
16846;DHT22;8539;53.188;8.696;2023-02-01T01:12:03;5.50;99.90
16846;DHT22;8539;53.188;8.696;2023-02-01T01:14:35;5.50;99.90
16846;DHT22;8539;53.188;8.696;2023-02-01T01:17:01;5.50;99.90
16846;DHT22;8539;53.188;8.696;2023-02-01T01:19:27;5.40;99.90
16846;DHT22;8539;53.188;8.696;2023-02-01T01:21:54;5.40;99.90
16846;DHT22;8539;53.188;8.696;2023-02-01T01:24:20;5.40;99.90
16846;DHT22;8539;53.188;8.696;2023-02-01T01:26:46;5.40;99.90
16846;DHT22;8539;53.188;8.696;2023-02-01T01:29:12;5.40;99.90
16846;DHT22;8539;53.188;8.696;2023-02-01T01:31:38;5.50;99.90
16846;DHT22;8539;53.188;8.696;2023-02-01T01:34:04;5.40;99.90
16846;DHT22;8539;53.188;8.696;2023-02-01T01:36:30;5.40;99.90
16846;DHT22;8539;53.188;8.696;2023-02-01T01:38:57;5.40;99.90
16846;DHT22;8539;53.188;8.696;2023-02-01T01:41:26;5.40;99.90
16846;DHT22;8539;53.188;8.696;2023-02-01T01:43:55;5.40;99.90
16846;DHT22;8539;53.188;8.696;2023-02-01T01:49:14;6.00;99.90
16846;DHT22;8539;53.188;8.696;2023-02-01T01:51:49;5.40;99.90
16846;DHT22;8539;53.188;8.696;2023-02-01T01:54:44;5.40;99.90
16846;DHT22;8539;53.188;8.696;2023-02-01T01:57:17;5.40;99.90
16846;DHT22;8539;53.188;8.696;2023-02-01T01:59:50;5.30;99.90
16846;DHT22;8539;53.188;8.696;2023-02-01T02:02:18;5.50;99.90
16846;DHT22;8539;53.188;8.696;2023-02-01T02:04:45;5.40;99.90
16846;DHT22;8539;53.188;8.696;2023-02-01T02:07:16;5.40;99.90
16846;DHT22;8539;53.188;8.696;2023-02-01T02:09:43;5.40;99.90
16846;DHT22;8539;53.188;8.696;2023-02-01T02:12:10;5.40;99.90
16846;DHT22;8539;53.188;8.696;2023-02-01T02:14:36;5.60;99.90
16846;DHT22;8539;53.188;8.696;2023-02-01T02:33:59;5.50;99.90
16846;DHT22;8539;53.188;8.696;2023-02-01T02:48:28;5.50;99.90
16846;DHT22;8539;53.188;8.696;2023-02-01T02:51:11;5.50;99.90
16846;DHT22;8539;53.188;8.696;2023-02-01T02:54:30;5.50;99.90
16846;DHT22;8539;53.188;8.696;2023-02-01T02:57:39;5.50;99.90
16846;DHT22;8539;53.188;8.696;2023-02-01T03:00:30;5.50;99.90
16846;DHT22;8539;53.188;8.696;2023-02-01T03:03:16;5.40;99.90
16846;DHT22;8539;53.188;8.696;2023-02-01T03:06:01;5.40;99.90
16846;DHT22;8539;53.188;8.696;2023-02-01T03:08:30;5.40;99.90
16846;DHT22;8539;53.188;8.696;2023-02-01T03:11:07;5.40;99.90
16846;DHT22;8539;53.188;8.696;2023-02-01T03:13:53;5.40;99.90
16846;DHT22;8539;53.188;8.696;2023-02-01T03:16:26;5.40;99.90
16846;DHT22;8539;53.188;8.696;2023-02-01T03:19:18;5.40;99.90
16846;DHT22;8539;53.188;8.696;2023-02-01T03:22:12;5.40;99.90
16846;DHT22;8539;53.188;8.696;2023-02-01T03:27:15;5.40;99.90
16846;DHT22;8539;53.188;8.696;2023-02-01T03:30:07;5.40;99.90
16846;DHT22;8539;53.188;8.696;2023-02-01T03:32:34;5.30;99.90
16846;DHT22;8539;53.188;8.696;2023-02-01T03:40:52;5.10;99.90
16846;DHT22;8539;53.188;8.696;2023-02-01T03:43:20;5.20;99.90
16846;DHT22;8539;53.188;8.696;2023-02-01T03:45:52;5.00;99.90
16846;DHT22;8539;53.188;8.696;2023-02-01T03:48:19;4.90;99.90
16846;DHT22;8539;53.188;8.696;2023-02-01T03:50:49;4.90;99.90
16846;DHT22;8539;53.188;8.696;2023-02-01T03:53:20;5.00;99.90
16846;DHT22;8539;53.188;8.696;2023-02-01T03:55:48;4.90;99.90
16846;DHT22;8539;53.188;8.696;2023-02-01T03:58:19;4.90;99.90
16846;DHT22;8539;53.188;8.696;2023-02-01T04:00:57;4.90;99.90
16846;DHT22;8539;53.188;8.696;2023-02-01T04:03:25;4.80;99.90
16846;DHT22;8539;53.188;8.696;2023-02-01T04:05:52;4.80;99.90
16846;DHT22;8539;53.188;8.696;2023-02-01T04:08:19;4.80;99.90
16846;DHT22;8539;53.188;8.696;2023-02-01T04:10:45;4.80;99.90
16846;DHT22;8539;53.188;8.696;2023-02-01T04:13:12;4.70;99.90
16846;DHT22;8539;53.188;8.696;2023-02-01T04:15:38;4.60;99.90
16846;DHT22;8539;53.188;8.696;2023-02-01T04:18:04;4.60;99.90
16846;DHT22;8539;53.188;8.696;2023-02-01T04:20:31;4.50;99.90
16846;DHT22;8539;53.188;8.696;2023-02-01T04:22:57;4.70;99.90
16846;DHT22;8539;53.188;8.696;2023-02-01T04:25:24;4.40;99.90
16846;DHT22;8539;53.188;8.696;2023-02-01T04:27:50;4.70;99.90
16846;DHT22;8539;53.188;8.696;2023-02-01T04:30:16;4.30;99.90
16846;DHT22;8539;53.188;8.696;2023-02-01T04:32:42;4.20;99.90
16846;DHT22;8539;53.188;8.696;2023-02-01T04:35:08;4.10;99.90
16846;DHT22;8539;53.188;8.696;2023-02-01T04:37:35;4.20;99.90
16846;DHT22;8539;53.188;8.696;2023-02-01T04:40:01;4.10;99.90
16846;DHT22;8539;53.188;8.696;2023-02-01T04:42:30;4.00;99.90
16846;DHT22;8539;53.188;8.696;2023-02-01T04:44:56;4.00;99.90
16846;DHT22;8539;53.188;8.696;2023-02-01T04:47:22;4.10;99.90
16846;DHT22;8539;53.188;8.696;2023-02-01T04:49:48;4.10;99.90
16846;DHT22;8539;53.188;8.696;2023-02-01T04:52:14;4.30;99.90
16846;DHT22;8539;53.188;8.696;2023-02-01T04:54:40;4.30;99.90
16846;DHT22;8539;53.188;8.696;2023-02-01T04:57:06;4.40;99.90
16846;DHT22;8539;53.188;8.696;2023-02-01T04:59:32;4.50;99.90
16846;DHT22;8539;53.188;8.696;2023-02-01T05:01:58;4.50;99.90
16846;DHT22;8539;53.188;8.696;2023-02-01T05:04:24;4.60;99.90
16846;DHT22;8539;53.188;8.696;2023-02-01T05:06:50;4.60;99.90
16846;DHT22;8539;53.188;8.696;2023-02-01T05:09:18;4.60;99.90
16846;DHT22;8539;53.188;8.696;2023-02-01T05:11:44;4.60;99.90
16846;DHT22;8539;53.188;8.696;2023-02-01T05:14:28;4.70;99.90
16846;DHT22;8539;53.188;8.696;2023-02-01T05:16:54;4.70;99.90
16846;DHT22;8539;53.188;8.696;2023-02-01T05:19:20;4.70;99.90
16846;DHT22;8539;53.188;8.696;2023-02-01T05:21:46;4.70;99.90
16846;DHT22;8539;53.188;8.696;2023-02-01T05:24:12;4.70;99.90
16846;DHT22;8539;53.188;8.696;2023-02-01T05:26:40;4.70;99.90
16846;DHT22;8539;53.188;8.696;2023-02-01T05:29:07;4.80;99.90
16846;DHT22;8539;53.188;8.696;2023-02-01T05:31:33;4.80;99.90
16846;DHT22;8539;53.188;8.696;2023-02-01T05:33:59;4.80;99.90
16846;DHT22;8539;53.188;8.696;2023-02-01T05:36:25;4.70;99.90
16846;DHT22;8539;53.188;8.696;2023-02-01T05:38:52;4.70;99.90
16846;DHT22;8539;53.188;8.696;2023-02-01T05:41:18;4.80;99.90
16846;DHT22;8539;53.188;8.696;2023-02-01T05:43:44;4.70;99.90
16846;DHT22;8539;53.188;8.696;2023-02-01T05:46:10;4.90;99.90
16846;DHT22;8539;53.188;8.696;2023-02-01T05:48:39;4.70;99.90
16846;DHT22;8539;53.188;8.696;2023-02-01T05:51:05;4.70;99.90
16846;DHT22;8539;53.188;8.696;2023-02-01T05:53:31;4.80;99.90
16846;DHT22;8539;53.188;8.696;2023-02-01T05:55:57;4.80;99.90
16846;DHT22;8539;53.188;8.696;2023-02-01T05:58:23;4.80;99.90
16846;DHT22;8539;53.188;8.696;2023-02-01T06:00:49;4.80;99.90
16846;DHT22;8539;53.188;8.696;2023-02-01T06:03:15;4.80;99.90
16846;DHT22;8539;53.188;8.696;2023-02-01T06:05:44;4.80;99.90
16846;DHT22;8539;53.188;8.696;2023-02-01T06:08:11;4.80;99.90
16846;DHT22;8539;53.188;8.696;2023-02-01T06:10:37;4.80;99.90
16846;DHT22;8539;53.188;8.696;2023-02-01T06:13:03;4.80;99.90
16846;DHT22;8539;53.188;8.696;2023-02-01T06:15:30;4.80;99.90
16846;DHT22;8539;53.188;8.696;2023-02-01T06:17:56;4.80;99.90
16846;DHT22;8539;53.188;8.696;2023-02-01T06:20:22;4.80;99.90
16846;DHT22;8539;53.188;8.696;2023-02-01T06:22:48;4.90;99.90
16846;DHT22;8539;53.188;8.696;2023-02-01T06:25:14;4.80;99.90
16846;DHT22;8539;53.188;8.696;2023-02-01T06:27:40;5.00;99.90
16846;DHT22;8539;53.188;8.696;2023-02-01T06:30:07;4.90;99.90
16846;DHT22;8539;53.188;8.696;2023-02-01T06:32:33;4.90;99.90
16846;DHT22;8539;53.188;8.696;2023-02-01T06:34:59;4.90;99.90
16846;DHT22;8539;53.188;8.696;2023-02-01T06:37:26;4.90;99.90
16846;DHT22;8539;53.188;8.696;2023-02-01T06:39:55;4.90;99.90
16846;DHT22;8539;53.188;8.696;2023-02-01T06:42:21;5.00;99.90
16846;DHT22;8539;53.188;8.696;2023-02-01T06:44:47;5.00;99.90
16846;DHT22;8539;53.188;8.696;2023-02-01T06:47:13;5.00;99.90
16846;DHT22;8539;53.188;8.696;2023-02-01T06:49:39;5.00;99.90
16846;DHT22;8539;53.188;8.696;2023-02-01T06:52:06;5.20;99.90
16846;DHT22;8539;53.188;8.696;2023-02-01T06:54:32;5.00;99.90
16846;DHT22;8539;53.188;8.696;2023-02-01T06:56:59;5.20;99.90
16846;DHT22;8539;53.188;8.696;2023-02-01T06:59:25;5.10;99.90
16846;DHT22;8539;53.188;8.696;2023-02-01T07:01:51;5.10;99.90
16846;DHT22;8539;53.188;8.696;2023-02-01T07:04:18;5.10;99.90
16846;DHT22;8539;53.188;8.696;2023-02-01T07:06:44;5.10;99.90
16846;DHT22;8539;53.188;8.696;2023-02-01T07:09:10;5.10;99.90
16846;DHT22;8539;53.188;8.696;2023-02-01T07:11:38;5.10;99.90
16846;DHT22;8539;53.188;8.696;2023-02-01T07:14:06;5.00;99.90
16846;DHT22;8539;53.188;8.696;2023-02-01T07:16:35;5.40;99.90
16846;DHT22;8539;53.188;8.696;2023-02-01T07:19:01;5.10;99.90
16846;DHT22;8539;53.188;8.696;2023-02-01T07:21:27;5.30;99.90
16846;DHT22;8539;53.188;8.696;2023-02-01T07:23:54;5.10;99.90
16846;DHT22;8539;53.188;8.696;2023-02-01T07:26:21;5.00;99.90
16846;DHT22;8539;53.188;8.696;2023-02-01T07:28:47;5.00;99.90
16846;DHT22;8539;53.188;8.696;2023-02-01T07:31:18;5.10;99.90
16846;DHT22;8539;53.188;8.696;2023-02-01T07:33:47;5.40;99.90
16846;DHT22;8539;53.188;8.696;2023-02-01T07:36:15;5.30;99.90
16846;DHT22;8539;53.188;8.696;2023-02-01T07:38:42;5.20;99.90
16846;DHT22;8539;53.188;8.696;2023-02-01T07:41:09;5.30;99.90
16846;DHT22;8539;53.188;8.696;2023-02-01T07:43:35;4.90;99.90
16846;DHT22;8539;53.188;8.696;2023-02-01T07:46:02;4.90;99.90
16846;DHT22;8539;53.188;8.696;2023-02-01T07:48:30;4.90;99.90
16846;DHT22;8539;53.188;8.696;2023-02-01T07:51:04;4.90;99.90
16846;DHT22;8539;53.188;8.696;2023-02-01T07:53:32;4.90;99.90
16846;DHT22;8539;53.188;8.696;2023-02-01T07:55:59;5.00;99.90
16846;DHT22;8539;53.188;8.696;2023-02-01T07:58:25;5.60;99.90
16846;DHT22;8539;53.188;8.696;2023-02-01T08:00:52;5.10;99.90
16846;DHT22;8539;53.188;8.696;2023-02-01T08:03:37;5.10;99.90
16846;DHT22;8539;53.188;8.696;2023-02-01T08:06:03;5.10;99.90
16846;DHT22;8539;53.188;8.696;2023-02-01T08:08:30;5.20;99.90
16846;DHT22;8539;53.188;8.696;2023-02-01T08:11:00;5.20;99.90
16846;DHT22;8539;53.188;8.696;2023-02-01T08:13:27;5.20;99.90
16846;DHT22;8539;53.188;8.696;2023-02-01T08:16:01;5.30;99.90
16846;DHT22;8539;53.188;8.696;2023-02-01T08:18:27;5.30;99.90
16846;DHT22;8539;53.188;8.696;2023-02-01T08:20:53;5.30;99.90
16846;DHT22;8539;53.188;8.696;2023-02-01T08:23:20;5.40;99.90
16846;DHT22;8539;53.188;8.696;2023-02-01T08:25:47;5.40;99.90
16846;DHT22;8539;53.188;8.696;2023-02-01T08:28:13;5.40;99.90
16846;DHT22;8539;53.188;8.696;2023-02-01T08:30:40;5.40;99.90
16846;DHT22;8539;53.188;8.696;2023-02-01T08:33:08;5.30;99.90
16846;DHT22;8539;53.188;8.696;2023-02-01T08:35:35;5.30;99.90
16846;DHT22;8539;53.188;8.696;2023-02-01T08:38:02;5.40;99.90
16846;DHT22;8539;53.188;8.696;2023-02-01T08:40:28;5.40;99.90
16846;DHT22;8539;53.188;8.696;2023-02-01T08:42:55;5.60;99.90
16846;DHT22;8539;53.188;8.696;2023-02-01T08:45:24;5.50;99.90
16846;DHT22;8539;53.188;8.696;2023-02-01T08:47:54;5.50;99.90
16846;DHT22;8539;53.188;8.696;2023-02-01T08:50:21;5.70;99.90
16846;DHT22;8539;53.188;8.696;2023-02-01T08:52:47;5.70;99.90
16846;DHT22;8539;53.188;8.696;2023-02-01T08:55:14;5.80;99.90
16846;DHT22;8539;53.188;8.696;2023-02-01T08:57:43;5.80;99.90
16846;DHT22;8539;53.188;8.696;2023-02-01T09:00:14;5.80;99.90
16846;DHT22;8539;53.188;8.696;2023-02-01T09:02:41;5.80;99.90
16846;DHT22;8539;53.188;8.696;2023-02-01T09:05:08;5.90;99.90
16846;DHT22;8539;53.188;8.696;2023-02-01T09:07:35;5.90;99.90
16846;DHT22;8539;53.188;8.696;2023-02-01T09:10:04;5.90;99.90
16846;DHT22;8539;53.188;8.696;2023-02-01T09:12:32;5.90;99.90
16846;DHT22;8539;53.188;8.696;2023-02-01T09:14:59;6.00;99.90
16846;DHT22;8539;53.188;8.696;2023-02-01T09:17:29;6.00;99.90
16846;DHT22;8539;53.188;8.696;2023-02-01T09:19:55;6.00;99.90
16846;DHT22;8539;53.188;8.696;2023-02-01T09:22:21;6.00;99.90
16846;DHT22;8539;53.188;8.696;2023-02-01T09:24:47;6.10;99.90
16846;DHT22;8539;53.188;8.696;2023-02-01T09:27:13;6.10;99.90
16846;DHT22;8539;53.188;8.696;2023-02-01T09:29:40;6.10;99.90
16846;DHT22;8539;53.188;8.696;2023-02-01T09:32:06;6.10;99.90
16846;DHT22;8539;53.188;8.696;2023-02-01T09:34:33;6.10;99.90
16846;DHT22;8539;53.188;8.696;2023-02-01T09:36:59;6.10;99.90
16846;DHT22;8539;53.188;8.696;2023-02-01T09:39:25;6.20;99.90
16846;DHT22;8539;53.188;8.696;2023-02-01T09:47:15;6.30;99.90
16846;DHT22;8539;53.188;8.696;2023-02-01T09:50:11;6.40;99.90
16846;DHT22;8539;53.188;8.696;2023-02-01T09:57:58;6.30;99.90
16846;DHT22;8539;53.188;8.696;2023-02-01T10:00:34;6.30;99.90
16846;DHT22;8539;53.188;8.696;2023-02-01T10:03:00;6.30;99.90
16846;DHT22;8539;53.188;8.696;2023-02-01T10:05:43;6.40;99.90
16846;DHT22;8539;53.188;8.696;2023-02-01T10:08:19;6.30;99.90
16846;DHT22;8539;53.188;8.696;2023-02-01T10:10:49;6.30;99.90
16846;DHT22;8539;53.188;8.696;2023-02-01T10:13:34;6.30;99.90
16846;DHT22;8539;53.188;8.696;2023-02-01T10:19:08;6.30;99.90
16846;DHT22;8539;53.188;8.696;2023-02-01T10:21:53;6.30;99.90
16846;DHT22;8539;53.188;8.696;2023-02-01T10:26:54;6.30;99.90
16846;DHT22;8539;53.188;8.696;2023-02-01T10:29:25;6.40;99.90
16846;DHT22;8539;53.188;8.696;2023-02-01T10:31:53;6.20;99.90
16846;DHT22;8539;53.188;8.696;2023-02-01T10:34:31;6.20;99.90
16846;DHT22;8539;53.188;8.696;2023-02-01T10:37:01;6.20;99.90
16846;DHT22;8539;53.188;8.696;2023-02-01T10:39:33;6.20;99.90
16846;DHT22;8539;53.188;8.696;2023-02-01T10:41:59;6.20;99.90
16846;DHT22;8539;53.188;8.696;2023-02-01T10:44:30;6.20;99.90
16846;DHT22;8539;53.188;8.696;2023-02-01T10:46:57;6.10;99.90
16846;DHT22;8539;53.188;8.696;2023-02-01T10:49:33;6.10;99.90
16846;DHT22;8539;53.188;8.696;2023-02-01T10:52:07;6.00;99.90
16846;DHT22;8539;53.188;8.696;2023-02-01T10:54:39;6.00;99.90
16846;DHT22;8539;53.188;8.696;2023-02-01T10:57:10;5.90;99.90
16846;DHT22;8539;53.188;8.696;2023-02-01T10:59:37;5.90;99.90
16846;DHT22;8539;53.188;8.696;2023-02-01T11:02:27;5.80;99.90
16846;DHT22;8539;53.188;8.696;2023-02-01T11:05:08;5.80;99.90
16846;DHT22;8539;53.188;8.696;2023-02-01T11:07:36;5.70;99.90
16846;DHT22;8539;53.188;8.696;2023-02-01T11:10:03;5.70;99.90
16846;DHT22;8539;53.188;8.696;2023-02-01T11:12:35;5.60;99.90
16846;DHT22;8539;53.188;8.696;2023-02-01T11:17:43;5.60;99.90
16846;DHT22;8539;53.188;8.696;2023-02-01T11:22:58;5.50;99.90
16846;DHT22;8539;53.188;8.696;2023-02-01T11:25:25;5.50;99.90
16846;DHT22;8539;53.188;8.696;2023-02-01T11:27:53;5.40;99.90
16846;DHT22;8539;53.188;8.696;2023-02-01T11:30:42;5.40;99.90
16846;DHT22;8539;53.188;8.696;2023-02-01T11:33:17;5.40;99.90
16846;DHT22;8539;53.188;8.696;2023-02-01T11:35:47;5.30;99.90
16846;DHT22;8539;53.188;8.696;2023-02-01T11:38:27;5.40;99.90
16846;DHT22;8539;53.188;8.696;2023-02-01T11:40:54;4.60;99.90
16846;DHT22;8539;53.188;8.696;2023-02-01T11:43:28;5.20;99.90
16846;DHT22;8539;53.188;8.696;2023-02-01T11:46:00;5.10;99.90
16846;DHT22;8539;53.188;8.696;2023-02-01T11:48:30;5.10;99.90
16846;DHT22;8539;53.188;8.696;2023-02-01T12:02:15;4.80;99.90
16846;DHT22;8539;53.188;8.696;2023-02-01T12:13:38;4.70;99.90
16846;DHT22;8539;53.188;8.696;2023-02-01T12:24:47;2.90;99.90
16846;DHT22;8539;53.188;8.696;2023-02-01T12:30:40;2.60;99.90
16846;DHT22;8539;53.188;8.696;2023-02-01T12:36:07;2.40;99.90
16846;DHT22;8539;53.188;8.696;2023-02-01T12:46:49;2.40;99.90
16846;DHT22;8539;53.188;8.696;2023-02-01T12:49:30;2.50;99.90
16846;DHT22;8539;53.188;8.696;2023-02-01T12:52:06;2.50;99.90
16846;DHT22;8539;53.188;8.696;2023-02-01T12:54:44;2.50;99.90
16846;DHT22;8539;53.188;8.696;2023-02-01T12:57:26;2.60;99.90
16846;DHT22;8539;53.188;8.696;2023-02-01T13:00:01;2.70;99.90
16846;DHT22;8539;53.188;8.696;2023-02-01T13:05:16;2.90;99.90
16846;DHT22;8539;53.188;8.696;2023-02-01T13:10:52;3.30;99.90
16846;DHT22;8539;53.188;8.696;2023-02-01T13:13:32;3.70;99.90
16846;DHT22;8539;53.188;8.696;2023-02-01T13:16:38;3.90;99.90
16846;DHT22;8539;53.188;8.696;2023-02-01T13:21:57;4.00;99.90
16846;DHT22;8539;53.188;8.696;2023-02-01T13:25:02;4.00;99.90
16846;DHT22;8539;53.188;8.696;2023-02-01T13:27:27;4.00;99.90
16846;DHT22;8539;53.188;8.696;2023-02-01T13:30:23;4.00;99.90
16846;DHT22;8539;53.188;8.696;2023-02-01T13:36:46;4.20;99.90
16846;DHT22;8539;53.188;8.696;2023-02-01T13:39:06;4.30;99.90
16846;DHT22;8539;53.188;8.696;2023-02-01T13:42:00;4.30;99.90
16846;DHT22;8539;53.188;8.696;2023-02-01T13:44:38;4.40;99.90
16846;DHT22;8539;53.188;8.696;2023-02-01T13:47:18;4.60;99.90
16846;DHT22;8539;53.188;8.696;2023-02-01T13:49:46;4.70;99.90
16846;DHT22;8539;53.188;8.696;2023-02-01T13:52:29;4.70;99.90
16846;DHT22;8539;53.188;8.696;2023-02-01T13:55:36;4.80;99.90
16846;DHT22;8539;53.188;8.696;2023-02-01T14:00:36;5.00;99.90
16846;DHT22;8539;53.188;8.696;2023-02-01T14:13:36;5.20;99.90
16846;DHT22;8539;53.188;8.696;2023-02-01T14:34:29;6.00;99.90
16846;DHT22;8539;53.188;8.696;2023-02-01T14:37:00;5.90;99.90
16846;DHT22;8539;53.188;8.696;2023-02-01T14:39:38;5.30;99.90
16846;DHT22;8539;53.188;8.696;2023-02-01T14:42:25;6.10;99.90
16846;DHT22;8539;53.188;8.696;2023-02-01T14:44:53;6.10;99.90
16846;DHT22;8539;53.188;8.696;2023-02-01T14:49:59;6.20;99.90
16846;DHT22;8539;53.188;8.696;2023-02-01T14:55:39;6.20;99.90
16846;DHT22;8539;53.188;8.696;2023-02-01T15:00:52;6.10;99.90
16846;DHT22;8539;53.188;8.696;2023-02-01T15:06:12;6.00;99.90
16846;DHT22;8539;53.188;8.696;2023-02-01T15:08:39;6.00;99.90
16846;DHT22;8539;53.188;8.696;2023-02-01T15:11:12;6.00;99.90
16846;DHT22;8539;53.188;8.696;2023-02-01T15:13:40;6.00;99.90
16846;DHT22;8539;53.188;8.696;2023-02-01T15:16:12;6.00;99.90
16846;DHT22;8539;53.188;8.696;2023-02-01T15:18:40;6.00;99.90
16846;DHT22;8539;53.188;8.696;2023-02-01T15:21:15;6.20;99.90
16846;DHT22;8539;53.188;8.696;2023-02-01T15:23:41;6.00;99.90
16846;DHT22;8539;53.188;8.696;2023-02-01T15:26:08;6.20;99.90
16846;DHT22;8539;53.188;8.696;2023-02-01T15:28:34;6.30;99.90
16846;DHT22;8539;53.188;8.696;2023-02-01T15:31:02;6.10;99.90
16846;DHT22;8539;53.188;8.696;2023-02-01T15:33:30;6.30;99.90
16846;DHT22;8539;53.188;8.696;2023-02-01T15:41:06;6.30;99.90
16846;DHT22;8539;53.188;8.696;2023-02-01T15:48:56;6.30;99.90
16846;DHT22;8539;53.188;8.696;2023-02-01T15:51:25;6.30;99.90
16846;DHT22;8539;53.188;8.696;2023-02-01T15:54:15;6.30;99.90
16846;DHT22;8539;53.188;8.696;2023-02-01T15:56:50;6.30;99.90
16846;DHT22;8539;53.188;8.696;2023-02-01T15:59:25;6.30;99.90
16846;DHT22;8539;53.188;8.696;2023-02-01T16:01:54;6.30;99.90
16846;DHT22;8539;53.188;8.696;2023-02-01T16:04:23;6.10;99.90
16846;DHT22;8539;53.188;8.696;2023-02-01T16:06:55;6.00;99.90
16846;DHT22;8539;53.188;8.696;2023-02-01T16:09:23;5.80;99.90
16846;DHT22;8539;53.188;8.696;2023-02-01T16:12:01;5.80;99.90
16846;DHT22;8539;53.188;8.696;2023-02-01T16:14:27;5.70;99.90
16846;DHT22;8539;53.188;8.696;2023-02-01T16:16:55;5.50;99.90
16846;DHT22;8539;53.188;8.696;2023-02-01T16:19:22;5.30;99.90
16846;DHT22;8539;53.188;8.696;2023-02-01T16:21:56;5.30;99.90
16846;DHT22;8539;53.188;8.696;2023-02-01T16:24:22;5.30;99.90
16846;DHT22;8539;53.188;8.696;2023-02-01T16:26:52;5.30;99.90
16846;DHT22;8539;53.188;8.696;2023-02-01T16:29:18;5.00;99.90
16846;DHT22;8539;53.188;8.696;2023-02-01T16:31:48;5.00;99.90
16846;DHT22;8539;53.188;8.696;2023-02-01T16:34:15;5.10;99.90
16846;DHT22;8539;53.188;8.696;2023-02-01T16:36:49;4.90;99.90
16846;DHT22;8539;53.188;8.696;2023-02-01T16:39:22;4.90;99.90
16846;DHT22;8539;53.188;8.696;2023-02-01T16:41:49;4.90;99.90
16846;DHT22;8539;53.188;8.696;2023-02-01T16:44:15;4.90;99.90
16846;DHT22;8539;53.188;8.696;2023-02-01T16:46:44;4.90;99.90
16846;DHT22;8539;53.188;8.696;2023-02-01T16:49:20;4.90;99.90
16846;DHT22;8539;53.188;8.696;2023-02-01T16:51:51;4.80;99.90
16846;DHT22;8539;53.188;8.696;2023-02-01T16:54:21;4.80;99.90
16846;DHT22;8539;53.188;8.696;2023-02-01T16:56:47;4.80;99.90
16846;DHT22;8539;53.188;8.696;2023-02-01T16:59:13;4.90;99.90
16846;DHT22;8539;53.188;8.696;2023-02-01T17:01:40;4.90;99.90
16846;DHT22;8539;53.188;8.696;2023-02-01T17:04:09;4.90;99.90
16846;DHT22;8539;53.188;8.696;2023-02-01T17:06:36;4.90;99.90
16846;DHT22;8539;53.188;8.696;2023-02-01T17:09:03;4.90;99.90
16846;DHT22;8539;53.188;8.696;2023-02-01T17:11:30;4.90;99.90
16846;DHT22;8539;53.188;8.696;2023-02-01T17:14:01;4.70;99.90
16846;DHT22;8539;53.188;8.696;2023-02-01T17:16:33;4.50;99.90
16846;DHT22;8539;53.188;8.696;2023-02-01T17:19:05;4.50;99.90
16846;DHT22;8539;53.188;8.696;2023-02-01T17:21:42;4.40;99.90
16846;DHT22;8539;53.188;8.696;2023-02-01T17:24:13;4.30;99.90
16846;DHT22;8539;53.188;8.696;2023-02-01T17:26:40;4.20;99.90
16846;DHT22;8539;53.188;8.696;2023-02-01T17:29:07;4.30;99.90
16846;DHT22;8539;53.188;8.696;2023-02-01T17:31:37;4.30;99.90
16846;DHT22;8539;53.188;8.696;2023-02-01T17:34:03;4.30;99.90
16846;DHT22;8539;53.188;8.696;2023-02-01T17:36:29;4.30;99.90
16846;DHT22;8539;53.188;8.696;2023-02-01T17:38:55;4.30;99.90
16846;DHT22;8539;53.188;8.696;2023-02-01T17:41:21;4.30;99.90
16846;DHT22;8539;53.188;8.696;2023-02-01T17:43:48;4.30;99.90
16846;DHT22;8539;53.188;8.696;2023-02-01T17:46:16;4.30;99.90
16846;DHT22;8539;53.188;8.696;2023-02-01T17:48:43;5.00;99.90
16846;DHT22;8539;53.188;8.696;2023-02-01T17:51:21;4.70;99.90
16846;DHT22;8539;53.188;8.696;2023-02-01T17:53:48;4.40;99.90
16846;DHT22;8539;53.188;8.696;2023-02-01T17:56:16;4.40;99.90
16846;DHT22;8539;53.188;8.696;2023-02-01T17:58:43;4.80;99.90
16846;DHT22;8539;53.188;8.696;2023-02-01T18:01:16;4.90;99.90
16846;DHT22;8539;53.188;8.696;2023-02-01T18:03:43;4.50;99.90
16846;DHT22;8539;53.188;8.696;2023-02-01T18:06:12;4.50;99.90
16846;DHT22;8539;53.188;8.696;2023-02-01T18:08:39;4.60;99.90
16846;DHT22;8539;53.188;8.696;2023-02-01T18:11:13;5.10;99.90
16846;DHT22;8539;53.188;8.696;2023-02-01T18:13:40;4.80;99.90
16846;DHT22;8539;53.188;8.696;2023-02-01T18:16:08;4.70;99.90
16846;DHT22;8539;53.188;8.696;2023-02-01T18:18:40;5.00;99.90
16846;DHT22;8539;53.188;8.696;2023-02-01T18:21:08;4.80;99.90
16846;DHT22;8539;53.188;8.696;2023-02-01T18:23:34;4.80;99.90
16846;DHT22;8539;53.188;8.696;2023-02-01T18:26:03;4.80;99.90
16846;DHT22;8539;53.188;8.696;2023-02-01T18:28:29;4.80;99.90
16846;DHT22;8539;53.188;8.696;2023-02-01T18:30:55;4.80;99.90
16846;DHT22;8539;53.188;8.696;2023-02-01T18:33:21;4.80;99.90
16846;DHT22;8539;53.188;8.696;2023-02-01T18:35:48;4.90;99.90
16846;DHT22;8539;53.188;8.696;2023-02-01T18:38:14;4.80;99.90
16846;DHT22;8539;53.188;8.696;2023-02-01T18:40:52;5.30;99.90
16846;DHT22;8539;53.188;8.696;2023-02-01T18:43:19;4.90;99.90
16846;DHT22;8539;53.188;8.696;2023-02-01T18:45:47;4.90;99.90
16846;DHT22;8539;53.188;8.696;2023-02-01T18:48:15;4.90;99.90
16846;DHT22;8539;53.188;8.696;2023-02-01T18:50:43;5.10;99.90
16846;DHT22;8539;53.188;8.696;2023-02-01T18:53:20;5.00;99.90
16846;DHT22;8539;53.188;8.696;2023-02-01T18:55:49;5.00;99.90
16846;DHT22;8539;53.188;8.696;2023-02-01T18:58:16;5.30;99.90
16846;DHT22;8539;53.188;8.696;2023-02-01T19:00:44;5.40;99.90
16846;DHT22;8539;53.188;8.696;2023-02-01T19:03:12;5.10;99.90
16846;DHT22;8539;53.188;8.696;2023-02-01T19:05:38;5.20;99.90
16846;DHT22;8539;53.188;8.696;2023-02-01T19:08:05;5.20;99.90
16846;DHT22;8539;53.188;8.696;2023-02-01T19:10:31;5.50;99.90